San Ygnacio, TX (78067)

9:44 PM CDT on August 30, 2014 (GMT -0500)
Zapata | Change Station
CLOSE
Current Station
Airport
Location: Zapata,
Elevation: 423 ft
Nearby Weather Stations

Elev 423 ft 26.97 °N, 99.25 °W | Updated 9 minutes ago

Scattered Clouds
Scattered Clouds
81 °F
Feels Like 86 °F
N
7
Wind Variable Wind from SE

Today
High -- | Low -- °F
--% Chance of Precip.
Yesterday
High -- | Low -- °F
Precip. -- in
7:16 AM 7:59 PM
Waxing Crescent, 26% visible
Pressure 29.91 in
Visibility 10.0 miles
Clouds Scattered Clouds 1600 ft
Heat Index 86 °F
Dew Point 72 °F
Humidity 74%
Rainfall 0.00 in
Snow Depth Not available.
UV 0 out of 12
Pollen 9.00 out of 12
Air Quality Not available.
Flu Activity Not available.
METAR KAPY 310235Z AUTO 14006KT 10SM SCT016 27/22 A2991 RMK AO2 T02730223

More Conditions Fewer Conditions

Pressure 29.91 in
Visibility 10.0 miles
Clouds Scattered Clouds 1600 ft
Heat Index 86 °F
Dew Point 72 °F
Humidity 74%
Rainfall 0.00 in
Snow Depth Not available.
UV 0 out of 12
Pollen 9.00 out of 12
Air Quality Not available.
Flu Activity Not available.
METAR KAPY 310235Z AUTO 14006KT 10SM SCT016 27/22 A2991 RMK AO2 T02730223

More Conditions Fewer Conditions

10-Day Weather Forecast

Almanac

Astronomy

Aug. 30, 2014 Rise Set
Actual Time 7:16 AM CDT 7:59 PM CDT
Civil Twilight 6:52 AM CDT 8:23 PM CDT
Nautical Twilight 6:24 AM CDT 8:51 PM CDT
Astronomical Twilight 5:56 AM CDT 9:19 PM CDT
Moon 11:36 AM CDT (8/30) 11:05 PM CDT (8/30)
Length of Visible Light 13h 31m
Length of Day
12h 43m
Tomorrow will be 1m 31s shorter.
Waxing Crescent, 26% of the Moon is Illuminated
Today
Waxing Crescent
Sep 2
First Quarter
Sep 8
Full
Sep 15
Last Quarter
Sep 24
New

Today's Extremes

State Highs State Lows

Community

WunderPhotos

Upload Photos

1,748,749 photos uploaded!

Nearby

Snow Depth

Station Depth Elevation
No new snow has been reported.

Earthquake Activity

City Distance Mag. Time & Date
No recent earthquake activity has been reported nearby.
Minimum magnitude displayed is 2.5.

Coastal Water Temperatures

Place Temperature
No Stations Reporting

Nearby Weather Stations